»·PEaware :: SWA3414 KLAX-KLAS

SWA3414 :: KLAX-KLAS

FLIGHT INFORMATION

Flight Status: Arrived
Operator:
Southwest Airlines
More flights by this operator :: More flights under this callsign
Pilot: Andrew M. (139)
Aircraft: BOEING 737-800
(B738)
More flights by this aircraft type
Origin: KLAX Los Angeles Intl
United States
Destination: KLAS McCarran Intl
United States
More flights between these airports :: More routes between these airports
Route: +ORCKA3 MISEN KEPEC6
File this flight plan on PilotEdge
Remarks:
Altitude:
(Current/Filed)
29,000ft
Speed:
(Current/Filed)
320kts
Departed: 04-Dec-18 08:33 PM
Arrived: 04-Dec-18 09:28 PM
Distance/Time
Traveled:
205nm/0:54
Distance/Time
To Go:
Arrived

Flight Plot

Page will automatically refresh every two minutes.

Flight plan parsing failed; only flown route is shown


Map Options




Map Legend


Flown Route
Filed Route
Departure Airport
Arrival Airport
Navaid (VOR, NDB)
Fix

Horizontal Profiles

Position Reports

Time Latitude Longitude Heading Altitude Ground
Speed
04-Dec-18 19:26 33.941111 -118.403839 0 119ft 0kts
04-Dec-18 19:27 33.941111 -118.403839 262 119ft 0kts
04-Dec-18 19:28 33.941111 -118.403839 262 119ft 0kts
04-Dec-18 19:29 33.941111 -118.403839 262 119ft 0kts
04-Dec-18 19:30 33.941111 -118.403839 262 119ft 0kts
04-Dec-18 19:31 33.941111 -118.403839 262 119ft 0kts
04-Dec-18 19:32 33.941111 -118.403839 262 119ft 0kts
04-Dec-18 19:33 33.941111 -118.403839 262 119ft 0kts
04-Dec-18 19:34 33.941111 -118.403839 262 119ft 0kts
04-Dec-18 19:35 33.941111 -118.403839 262 119ft 0kts
04-Dec-18 19:36 33.941111 -118.403839 262 119ft 0kts
04-Dec-18 19:37 33.941111 -118.403839 262 119ft 0kts
04-Dec-18 19:38 33.941111 -118.403839 262 119ft 0kts
04-Dec-18 19:39 33.941111 -118.403839 262 119ft 0kts
04-Dec-18 19:40 33.941111 -118.403839 262 119ft 0kts
04-Dec-18 19:41 33.941111 -118.403839 262 119ft 0kts
04-Dec-18 19:42 33.941111 -118.403839 262 119ft 0kts
04-Dec-18 19:43 33.941111 -118.403839 262 119ft 0kts
04-Dec-18 19:44 33.941111 -118.403839 262 119ft 0kts
04-Dec-18 19:45 33.941111 -118.403839 262 119ft 0kts
04-Dec-18 19:46 33.941111 -118.403839 262 119ft 0kts
04-Dec-18 19:47 33.941111 -118.403839 262 119ft 0kts
04-Dec-18 19:48 33.941111 -118.403839 262 119ft 0kts
04-Dec-18 19:49 33.941111 -118.403839 262 119ft 0kts
04-Dec-18 19:54 33.941111 -118.403839 262 119ft 0kts
04-Dec-18 19:55 33.941111 -118.403839 262 119ft 0kts
04-Dec-18 19:56 33.941111 -118.403839 262 119ft 0kts
04-Dec-18 19:57 33.941111 -118.403839 262 119ft 0kts
04-Dec-18 19:58 33.941111 -118.403839 262 119ft 0kts
04-Dec-18 19:59 33.941111 -118.403839 262 119ft 0kts
04-Dec-18 20:00 33.941111 -118.403839 262 119ft 0kts
04-Dec-18 20:01 33.941111 -118.403839 262 119ft 0kts
04-Dec-18 20:02 33.941111 -118.403839 262 119ft 0kts
04-Dec-18 20:03 33.941111 -118.403839 262 119ft 0kts
04-Dec-18 20:04 33.941111 -118.403839 262 119ft 0kts
04-Dec-18 20:05 33.941111 -118.403839 262 119ft 0kts
04-Dec-18 20:06 33.941111 -118.403839 262 119ft 0kts
04-Dec-18 20:07 33.941111 -118.403839 262 119ft 0kts
04-Dec-18 20:08 33.941111 -118.403839 262 119ft 0kts
04-Dec-18 20:10 33.941111 -118.403839 262 119ft 0kts
04-Dec-18 20:11 33.941111 -118.403839 262 119ft 0kts
04-Dec-18 20:12 33.941111 -118.403839 262 119ft 0kts
04-Dec-18 20:13 33.941111 -118.403839 262 119ft 0kts
04-Dec-18 20:14 33.941111 -118.403839 262 119ft 0kts
04-Dec-18 20:15 33.941187 -118.403392 230 119ft 2kts
04-Dec-18 20:16 33.941494 -118.403271 171 119ft 0kts
04-Dec-18 20:17 33.941494 -118.403271 172 119ft 0kts
04-Dec-18 20:18 33.941494 -118.403271 172 119ft 0kts
04-Dec-18 20:19 33.941494 -118.403271 172 119ft 0kts
04-Dec-18 20:20 33.940917 -118.403182 173 119ft 8kts
04-Dec-18 20:21 33.939401 -118.401919 81 119ft 6kts
04-Dec-18 20:22 33.939782 -118.398337 82 113ft 14kts
04-Dec-18 20:23 33.940319 -118.393071 83 106ft 15kts
04-Dec-18 20:24 33.939889 -118.389730 108 103ft 8kts
04-Dec-18 20:25 33.940117 -118.386921 83 103ft 8kts
04-Dec-18 20:26 33.940434 -118.383880 86 100ft 10kts
04-Dec-18 20:26 33.940458 -118.382985 73 99ft 8kts
04-Dec-18 20:28 33.940723 -118.380892 97 99ft 0kts
04-Dec-18 20:29 33.940723 -118.380892 97 99ft 0kts
04-Dec-18 20:30 33.940723 -118.380892 97 99ft 0kts
04-Dec-18 20:30 33.940723 -118.380892 97 99ft 0kts
04-Dec-18 20:32 33.940201 -118.380195 175 99ft 5kts
04-Dec-18 20:33 33.938259 -118.395684 263 109ft 147kts
04-Dec-18 20:33 33.937048 -118.442644 288 1792ft 182kts
04-Dec-18 20:35 33.977770 -118.503396 325 3647ft 229kts
04-Dec-18 20:35 34.001744 -118.551855 249 5294ft 230kts
04-Dec-18 20:36 33.960007 -118.614633 203 7621ft 256kts
04-Dec-18 20:37 33.890435 -118.592165 137 9126ft 281kts
04-Dec-18 20:38 33.894165 -118.494828 60 10997ft 357kts
04-Dec-18 20:39 33.951072 -118.401173 59 13331ft 375kts
04-Dec-18 20:40 34.010634 -118.295902 58 15936ft 394kts
04-Dec-18 20:41 34.073948 -118.184026 57 18463ft 411kts
04-Dec-18 20:42 34.135859 -118.074410 56 20522ft 430kts
04-Dec-18 20:43 34.204486 -117.952442 56 22532ft 448kts
04-Dec-18 20:44 34.275560 -117.825619 56 24024ft 461kts
04-Dec-18 20:45 34.347113 -117.697550 56 24057ft 458kts
04-Dec-18 20:46 34.422549 -117.570930 53 25197ft 477kts
04-Dec-18 20:47 34.501248 -117.438866 53 25118ft 486kts
04-Dec-18 20:48 34.580147 -117.305913 54 25110ft 490kts
04-Dec-18 20:49 34.659211 -117.172430 54 25102ft 483kts
04-Dec-18 20:50 34.737788 -117.038941 54 25107ft 485kts
04-Dec-18 20:51 34.815929 -116.905542 54 25140ft 485kts
04-Dec-18 20:52 34.894373 -116.771325 54 25143ft 486kts
04-Dec-18 20:53 34.971531 -116.636528 55 25145ft 484kts
04-Dec-18 20:54 35.047610 -116.501304 55 24979ft 480kts
04-Dec-18 20:55 35.123465 -116.370428 44 24193ft 472kts
04-Dec-18 20:56 35.217474 -116.260424 44 24159ft 471kts
04-Dec-18 20:57 35.308680 -116.145297 44 24161ft 470kts
04-Dec-18 20:58 35.399037 -116.031290 45 21844ft 465kts
04-Dec-18 20:59 35.486539 -115.920531 45 19067ft 434kts
04-Dec-18 21:00 35.568804 -115.816061 46 16354ft 413kts
04-Dec-18 21:01 35.645395 -115.718489 46 13951ft 382kts
04-Dec-18 21:02 35.714503 -115.630244 46 13002ft 327kts
04-Dec-18 21:03 35.789499 -115.575173 4 13021ft 327kts
04-Dec-18 21:04 35.880214 -115.568722 359 13012ft 326kts
04-Dec-18 21:05 35.964354 -115.533240 42 13007ft 330kts
04-Dec-18 21:06 36.011318 -115.438537 71 11934ft 326kts
04-Dec-18 21:07 36.028969 -115.334835 98 10516ft 307kts
04-Dec-18 21:08 36.021258 -115.236915 98 9392ft 268kts
04-Dec-18 21:09 36.015000 -115.148439 98 8788ft 248kts
04-Dec-18 21:10 36.009290 -115.063885 97 8016ft 238kts
04-Dec-18 21:11 36.004851 -114.988090 98 8012ft 215kts
04-Dec-18 21:12 36.000439 -114.914770 98 7992ft 214kts
04-Dec-18 21:13 35.995965 -114.841043 98 7989ft 213kts
04-Dec-18 21:14 35.991246 -114.767894 98 7992ft 213kts
04-Dec-18 21:15 35.986342 -114.694109 98 7993ft 215kts
04-Dec-18 21:16 35.995593 -114.621235 49 7997ft 228kts
04-Dec-18 21:17 36.053071 -114.604858 330 7564ft 221kts
04-Dec-18 21:18 36.076066 -114.662998 252 7093ft 196kts
04-Dec-18 21:19 36.073699 -114.730409 269 6388ft 194kts
04-Dec-18 21:20 36.073347 -114.797646 269 5393ft 184kts
04-Dec-18 21:21 36.073390 -114.858699 271 4040ft 177kts
04-Dec-18 21:22 36.073569 -114.920477 270 3891ft 186kts
04-Dec-18 21:23 36.073611 -114.979567 270 3934ft 165kts
04-Dec-18 21:24 36.073632 -115.036398 271 3508ft 163kts
04-Dec-18 21:25 36.073598 -115.090423 272 2632ft 150kts
04-Dec-18 21:26 36.073665 -115.140534 269 2086ft 105kts
04-Dec-18 21:27 36.073658 -115.149676 269 2118ft 0kts
04-Dec-18 21:28 36.073955 -115.153311 290 2132ft 11kts
04-Dec-18 21:29 36.074665 -115.155007 301 2137ft 6kts
04-Dec-18 21:30 36.075038 -115.152909 88 2129ft 13kts
04-Dec-18 21:31 36.075014 -115.148087 92 2110ft 12kts
04-Dec-18 21:32 36.076157 -115.146540 359 2104ft 6kts
04-Dec-18 21:33 36.077483 -115.146703 341 2102ft 0kts
04-Dec-18 21:34 36.079531 -115.147654 333 2100ft 9kts
04-Dec-18 21:35 36.080245 -115.147465 61 2097ft 2kts
04-Dec-18 21:36 36.080314 -115.147297 64 2096ft 0kts
04-Dec-18 21:37 36.080314 -115.147297 64 2096ft 0kts
04-Dec-18 21:38 36.080314 -115.147297 64 2096ft 0kts
04-Dec-18 21:39 36.080314 -115.147297 64 2096ft 0kts

Navigation Log

Ident Type
Flight plan parsing failed, navigation log unavailable